sensor_id;sensor_type;location;lat;lon;timestamp;P1;durP1;ratioP1;P2;durP2;ratioP2
70253;SDS011;57649;42.968;1.608;2023-07-20T00:01:14;5.45;;;4.15;;
70253;SDS011;57649;42.968;1.608;2023-07-20T00:03:39;6.85;;;4.43;;
70253;SDS011;57649;42.968;1.608;2023-07-20T00:06:05;9.05;;;4.68;;
70253;SDS011;57649;42.968;1.608;2023-07-20T00:08:30;9.73;;;4.70;;
70253;SDS011;57649;42.968;1.608;2023-07-20T00:10:56;7.68;;;4.60;;
70253;SDS011;57649;42.968;1.608;2023-07-20T00:13:21;7.75;;;5.00;;
70253;SDS011;57649;42.968;1.608;2023-07-20T00:15:47;6.68;;;3.80;;
70253;SDS011;57649;42.968;1.608;2023-07-20T00:18:12;9.20;;;4.63;;
70253;SDS011;57649;42.968;1.608;2023-07-20T00:20:38;6.53;;;4.18;;
70253;SDS011;57649;42.968;1.608;2023-07-20T00:23:04;8.10;;;4.40;;
70253;SDS011;57649;42.968;1.608;2023-07-20T00:25:29;7.00;;;4.80;;
70253;SDS011;57649;42.968;1.608;2023-07-20T00:27:55;6.50;;;4.25;;
70253;SDS011;57649;42.968;1.608;2023-07-20T00:30:20;7.28;;;4.00;;
70253;SDS011;57649;42.968;1.608;2023-07-20T00:32:46;6.13;;;3.92;;
70253;SDS011;57649;42.968;1.608;2023-07-20T00:35:11;5.15;;;3.30;;
70253;SDS011;57649;42.968;1.608;2023-07-20T00:37:37;9.40;;;3.58;;
70253;SDS011;57649;42.968;1.608;2023-07-20T00:40:04;4.65;;;3.25;;
70253;SDS011;57649;42.968;1.608;2023-07-20T00:42:32;5.35;;;3.33;;
70253;SDS011;57649;42.968;1.608;2023-07-20T00:44:58;5.32;;;3.60;;
70253;SDS011;57649;42.968;1.608;2023-07-20T00:47:23;6.80;;;3.35;;
70253;SDS011;57649;42.968;1.608;2023-07-20T00:49:49;6.93;;;3.55;;
70253;SDS011;57649;42.968;1.608;2023-07-20T00:52:16;8.48;;;3.25;;
70253;SDS011;57649;42.968;1.608;2023-07-20T00:54:44;7.97;;;3.70;;
70253;SDS011;57649;42.968;1.608;2023-07-20T00:57:09;5.13;;;3.60;;
70253;SDS011;57649;42.968;1.608;2023-07-20T00:59:37;6.88;;;3.38;;
70253;SDS011;57649;42.968;1.608;2023-07-20T01:02:03;7.50;;;3.72;;
70253;SDS011;57649;42.968;1.608;2023-07-20T01:04:29;7.05;;;3.78;;
70253;SDS011;57649;42.968;1.608;2023-07-20T01:06:58;9.27;;;3.97;;
70253;SDS011;57649;42.968;1.608;2023-07-20T01:09:50;5.50;;;3.40;;
70253;SDS011;57649;42.968;1.608;2023-07-20T01:12:27;7.00;;;3.47;;
70253;SDS011;57649;42.968;1.608;2023-07-20T01:15:00;8.18;;;3.78;;
70253;SDS011;57649;42.968;1.608;2023-07-20T01:17:26;6.40;;;3.60;;
70253;SDS011;57649;42.968;1.608;2023-07-20T01:19:51;8.20;;;3.60;;
70253;SDS011;57649;42.968;1.608;2023-07-20T01:30:52;5.82;;;3.35;;
70253;SDS011;57649;42.968;1.608;2023-07-20T01:33:24;7.43;;;3.58;;
70253;SDS011;57649;42.968;1.608;2023-07-20T01:35:57;4.72;;;3.60;;
70253;SDS011;57649;42.968;1.608;2023-07-20T01:38:25;8.48;;;3.33;;
70253;SDS011;57649;42.968;1.608;2023-07-20T01:40:50;8.35;;;3.58;;
70253;SDS011;57649;42.968;1.608;2023-07-20T01:43:17;7.50;;;3.58;;
70253;SDS011;57649;42.968;1.608;2023-07-20T01:45:42;6.05;;;4.07;;
70253;SDS011;57649;42.968;1.608;2023-07-20T01:48:08;7.07;;;3.92;;
70253;SDS011;57649;42.968;1.608;2023-07-20T01:50:34;6.40;;;4.03;;
70253;SDS011;57649;42.968;1.608;2023-07-20T01:53:00;9.93;;;4.30;;
70253;SDS011;57649;42.968;1.608;2023-07-20T01:55:25;8.73;;;4.13;;
70253;SDS011;57649;42.968;1.608;2023-07-20T01:57:51;6.75;;;3.75;;
70253;SDS011;57649;42.968;1.608;2023-07-20T02:00:16;6.43;;;4.03;;
70253;SDS011;57649;42.968;1.608;2023-07-20T02:02:44;8.75;;;4.10;;
70253;SDS011;57649;42.968;1.608;2023-07-20T02:05:09;9.07;;;4.07;;
70253;SDS011;57649;42.968;1.608;2023-07-20T02:07:35;7.25;;;4.15;;
70253;SDS011;57649;42.968;1.608;2023-07-20T02:10:00;7.57;;;4.05;;
70253;SDS011;57649;42.968;1.608;2023-07-20T02:12:25;9.38;;;4.35;;
70253;SDS011;57649;42.968;1.608;2023-07-20T02:14:51;9.23;;;4.60;;
70253;SDS011;57649;42.968;1.608;2023-07-20T02:17:16;8.25;;;4.45;;
70253;SDS011;57649;42.968;1.608;2023-07-20T02:19:42;6.72;;;4.07;;
70253;SDS011;57649;42.968;1.608;2023-07-20T02:22:07;7.22;;;4.28;;
70253;SDS011;57649;42.968;1.608;2023-07-20T02:24:33;7.30;;;4.53;;
70253;SDS011;57649;42.968;1.608;2023-07-20T02:26:59;7.35;;;4.25;;
70253;SDS011;57649;42.968;1.608;2023-07-20T02:29:24;8.90;;;4.57;;
70253;SDS011;57649;42.968;1.608;2023-07-20T02:31:49;9.45;;;4.32;;
70253;SDS011;57649;42.968;1.608;2023-07-20T02:34:15;8.45;;;4.13;;
70253;SDS011;57649;42.968;1.608;2023-07-20T02:36:40;6.68;;;4.78;;
70253;SDS011;57649;42.968;1.608;2023-07-20T02:39:07;6.68;;;4.35;;
70253;SDS011;57649;42.968;1.608;2023-07-20T02:41:33;10.15;;;4.57;;
70253;SDS011;57649;42.968;1.608;2023-07-20T02:43:59;7.88;;;4.78;;
70253;SDS011;57649;42.968;1.608;2023-07-20T02:46:25;8.10;;;4.63;;
70253;SDS011;57649;42.968;1.608;2023-07-20T02:48:50;8.23;;;4.63;;
70253;SDS011;57649;42.968;1.608;2023-07-20T02:51:16;7.88;;;4.53;;
70253;SDS011;57649;42.968;1.608;2023-07-20T02:53:41;8.10;;;4.38;;
70253;SDS011;57649;42.968;1.608;2023-07-20T02:56:07;7.63;;;4.50;;
70253;SDS011;57649;42.968;1.608;2023-07-20T02:58:33;6.20;;;4.20;;
70253;SDS011;57649;42.968;1.608;2023-07-20T03:01:02;7.80;;;4.00;;
70253;SDS011;57649;42.968;1.608;2023-07-20T03:03:27;5.88;;;4.35;;
70253;SDS011;57649;42.968;1.608;2023-07-20T03:05:53;7.03;;;4.60;;
70253;SDS011;57649;42.968;1.608;2023-07-20T03:08:20;7.47;;;4.13;;
70253;SDS011;57649;42.968;1.608;2023-07-20T03:10:46;6.18;;;4.18;;
70253;SDS011;57649;42.968;1.608;2023-07-20T03:13:11;5.70;;;3.92;;
70253;SDS011;57649;42.968;1.608;2023-07-20T03:15:39;7.30;;;4.72;;
70253;SDS011;57649;42.968;1.608;2023-07-20T03:18:04;10.00;;;4.90;;
70253;SDS011;57649;42.968;1.608;2023-07-20T03:20:30;11.02;;;4.60;;
70253;SDS011;57649;42.968;1.608;2023-07-20T03:22:56;6.35;;;4.38;;
70253;SDS011;57649;42.968;1.608;2023-07-20T03:25:22;7.68;;;4.43;;
70253;SDS011;57649;42.968;1.608;2023-07-20T03:27:47;7.85;;;4.40;;
70253;SDS011;57649;42.968;1.608;2023-07-20T03:30:13;8.50;;;4.32;;
70253;SDS011;57649;42.968;1.608;2023-07-20T03:32:38;8.65;;;4.93;;
70253;SDS011;57649;42.968;1.608;2023-07-20T03:35:04;12.20;;;4.95;;
70253;SDS011;57649;42.968;1.608;2023-07-20T03:37:29;9.13;;;4.47;;
70253;SDS011;57649;42.968;1.608;2023-07-20T03:39:55;8.15;;;4.25;;
70253;SDS011;57649;42.968;1.608;2023-07-20T03:42:20;11.18;;;4.50;;
70253;SDS011;57649;42.968;1.608;2023-07-20T03:44:46;9.00;;;4.53;;
70253;SDS011;57649;42.968;1.608;2023-07-20T03:47:11;9.57;;;5.38;;
70253;SDS011;57649;42.968;1.608;2023-07-20T03:49:37;7.15;;;4.18;;
70253;SDS011;57649;42.968;1.608;2023-07-20T03:52:03;7.88;;;4.65;;
70253;SDS011;57649;42.968;1.608;2023-07-20T03:54:28;7.35;;;4.60;;
70253;SDS011;57649;42.968;1.608;2023-07-20T03:56:54;8.73;;;4.93;;
70253;SDS011;57649;42.968;1.608;2023-07-20T03:59:19;9.15;;;4.45;;
70253;SDS011;57649;42.968;1.608;2023-07-20T04:01:45;10.25;;;4.63;;
70253;SDS011;57649;42.968;1.608;2023-07-20T04:04:10;6.78;;;4.88;;
70253;SDS011;57649;42.968;1.608;2023-07-20T04:06:36;11.02;;;4.53;;
70253;SDS011;57649;42.968;1.608;2023-07-20T04:09:02;9.00;;;4.88;;
70253;SDS011;57649;42.968;1.608;2023-07-20T04:11:29;6.53;;;4.13;;
70253;SDS011;57649;42.968;1.608;2023-07-20T04:13:55;8.40;;;4.88;;
70253;SDS011;57649;42.968;1.608;2023-07-20T04:16:21;9.50;;;4.22;;
70253;SDS011;57649;42.968;1.608;2023-07-20T04:18:46;11.00;;;4.90;;
70253;SDS011;57649;42.968;1.608;2023-07-20T04:21:12;5.70;;;4.15;;
70253;SDS011;57649;42.968;1.608;2023-07-20T04:23:37;7.88;;;4.93;;
70253;SDS011;57649;42.968;1.608;2023-07-20T04:26:03;7.68;;;4.57;;
70253;SDS011;57649;42.968;1.608;2023-07-20T04:28:28;8.18;;;4.63;;
70253;SDS011;57649;42.968;1.608;2023-07-20T04:30:53;14.63;;;5.03;;
70253;SDS011;57649;42.968;1.608;2023-07-20T04:33:19;7.38;;;4.65;;
70253;SDS011;57649;42.968;1.608;2023-07-20T04:35:46;9.00;;;4.78;;
70253;SDS011;57649;42.968;1.608;2023-07-20T04:38:13;10.75;;;6.60;;
70253;SDS011;57649;42.968;1.608;2023-07-20T04:40:40;8.52;;;4.43;;
70253;SDS011;57649;42.968;1.608;2023-07-20T04:43:05;10.73;;;6.05;;
70253;SDS011;57649;42.968;1.608;2023-07-20T04:45:31;9.35;;;4.57;;
70253;SDS011;57649;42.968;1.608;2023-07-20T04:47:56;10.45;;;5.30;;
70253;SDS011;57649;42.968;1.608;2023-07-20T04:50:22;8.10;;;4.68;;
70253;SDS011;57649;42.968;1.608;2023-07-20T04:52:49;12.75;;;4.97;;
70253;SDS011;57649;42.968;1.608;2023-07-20T04:55:14;8.13;;;4.40;;
70253;SDS011;57649;42.968;1.608;2023-07-20T04:57:40;9.45;;;5.07;;
70253;SDS011;57649;42.968;1.608;2023-07-20T05:00:05;8.82;;;4.38;;
70253;SDS011;57649;42.968;1.608;2023-07-20T05:02:31;10.38;;;4.57;;
70253;SDS011;57649;42.968;1.608;2023-07-20T05:04:57;11.18;;;4.50;;
70253;SDS011;57649;42.968;1.608;2023-07-20T05:07:22;12.18;;;5.30;;
70253;SDS011;57649;42.968;1.608;2023-07-20T05:09:47;12.50;;;5.80;;
70253;SDS011;57649;42.968;1.608;2023-07-20T05:12:13;8.75;;;4.55;;
70253;SDS011;57649;42.968;1.608;2023-07-20T05:14:38;12.48;;;5.60;;
70253;SDS011;57649;42.968;1.608;2023-07-20T05:17:04;8.35;;;4.82;;
70253;SDS011;57649;42.968;1.608;2023-07-20T05:19:29;10.95;;;5.20;;
70253;SDS011;57649;42.968;1.608;2023-07-20T05:21:55;8.60;;;4.75;;
70253;SDS011;57649;42.968;1.608;2023-07-20T05:24:20;8.68;;;4.82;;
70253;SDS011;57649;42.968;1.608;2023-07-20T05:26:47;9.68;;;4.80;;
70253;SDS011;57649;42.968;1.608;2023-07-20T05:29:13;12.82;;;6.30;;
70253;SDS011;57649;42.968;1.608;2023-07-20T05:31:39;9.95;;;4.97;;
70253;SDS011;57649;42.968;1.608;2023-07-20T05:34:04;10.75;;;4.60;;
70253;SDS011;57649;42.968;1.608;2023-07-20T05:36:29;8.85;;;4.65;;
70253;SDS011;57649;42.968;1.608;2023-07-20T05:38:56;7.97;;;4.85;;
70253;SDS011;57649;42.968;1.608;2023-07-20T05:41:21;9.98;;;5.68;;
70253;SDS011;57649;42.968;1.608;2023-07-20T05:43:47;8.85;;;5.55;;
70253;SDS011;57649;42.968;1.608;2023-07-20T05:46:13;13.27;;;5.50;;
70253;SDS011;57649;42.968;1.608;2023-07-20T05:48:38;9.73;;;4.68;;
70253;SDS011;57649;42.968;1.608;2023-07-20T05:51:04;9.25;;;5.03;;
70253;SDS011;57649;42.968;1.608;2023-07-20T05:53:30;10.45;;;6.00;;
70253;SDS011;57649;42.968;1.608;2023-07-20T05:55:55;10.50;;;4.80;;
70253;SDS011;57649;42.968;1.608;2023-07-20T05:58:21;8.98;;;4.57;;
70253;SDS011;57649;42.968;1.608;2023-07-20T06:00:48;12.77;;;4.75;;
70253;SDS011;57649;42.968;1.608;2023-07-20T06:03:14;11.80;;;6.07;;
70253;SDS011;57649;42.968;1.608;2023-07-20T06:05:41;7.85;;;4.47;;
70253;SDS011;57649;42.968;1.608;2023-07-20T06:08:07;9.20;;;5.00;;
70253;SDS011;57649;42.968;1.608;2023-07-20T06:10:33;8.07;;;4.43;;
70253;SDS011;57649;42.968;1.608;2023-07-20T06:12:58;9.63;;;5.05;;
70253;SDS011;57649;42.968;1.608;2023-07-20T06:15:24;9.32;;;5.28;;
70253;SDS011;57649;42.968;1.608;2023-07-20T06:18:01;9.93;;;4.90;;
70253;SDS011;57649;42.968;1.608;2023-07-20T06:20:28;8.32;;;4.60;;
70253;SDS011;57649;42.968;1.608;2023-07-20T06:22:54;9.63;;;4.57;;
70253;SDS011;57649;42.968;1.608;2023-07-20T06:25:19;8.07;;;5.00;;
70253;SDS011;57649;42.968;1.608;2023-07-20T06:27:46;8.63;;;4.70;;
70253;SDS011;57649;42.968;1.608;2023-07-20T06:30:11;8.02;;;5.43;;
70253;SDS011;57649;42.968;1.608;2023-07-20T06:32:38;8.23;;;4.50;;
70253;SDS011;57649;42.968;1.608;2023-07-20T06:35:04;10.18;;;5.55;;
70253;SDS011;57649;42.968;1.608;2023-07-20T06:37:30;13.15;;;5.53;;
70253;SDS011;57649;42.968;1.608;2023-07-20T06:39:55;10.88;;;5.75;;
70253;SDS011;57649;42.968;1.608;2023-07-20T06:42:21;8.07;;;4.43;;
70253;SDS011;57649;42.968;1.608;2023-07-20T06:44:46;8.82;;;4.97;;
70253;SDS011;57649;42.968;1.608;2023-07-20T06:47:11;9.20;;;4.70;;
70253;SDS011;57649;42.968;1.608;2023-07-20T06:49:37;9.82;;;4.60;;
70253;SDS011;57649;42.968;1.608;2023-07-20T06:52:02;11.40;;;5.10;;
70253;SDS011;57649;42.968;1.608;2023-07-20T06:54:28;9.82;;;5.05;;
70253;SDS011;57649;42.968;1.608;2023-07-20T06:56:53;10.68;;;6.60;;
70253;SDS011;57649;42.968;1.608;2023-07-20T06:59:19;7.50;;;4.85;;
70253;SDS011;57649;42.968;1.608;2023-07-20T07:01:44;6.10;;;4.63;;
70253;SDS011;57649;42.968;1.608;2023-07-20T07:04:09;6.97;;;4.22;;
70253;SDS011;57649;42.968;1.608;2023-07-20T07:06:35;8.90;;;5.00;;
70253;SDS011;57649;42.968;1.608;2023-07-20T07:09:02;10.65;;;4.88;;
70253;SDS011;57649;42.968;1.608;2023-07-20T07:11:28;8.02;;;5.05;;
70253;SDS011;57649;42.968;1.608;2023-07-20T07:13:54;5.80;;;4.53;;
70253;SDS011;57649;42.968;1.608;2023-07-20T07:16:19;9.48;;;4.75;;
70253;SDS011;57649;42.968;1.608;2023-07-20T07:18:45;7.15;;;4.57;;
70253;SDS011;57649;42.968;1.608;2023-07-20T07:21:14;9.02;;;4.82;;
70253;SDS011;57649;42.968;1.608;2023-07-20T07:23:39;7.68;;;4.40;;
70253;SDS011;57649;42.968;1.608;2023-07-20T07:26:04;12.73;;;4.88;;
70253;SDS011;57649;42.968;1.608;2023-07-20T07:28:30;8.23;;;4.70;;
70253;SDS011;57649;42.968;1.608;2023-07-20T07:30:57;9.57;;;4.88;;
70253;SDS011;57649;42.968;1.608;2023-07-20T07:33:22;7.35;;;4.05;;
70253;SDS011;57649;42.968;1.608;2023-07-20T07:35:49;6.07;;;4.32;;
70253;SDS011;57649;42.968;1.608;2023-07-20T07:38:14;8.15;;;4.47;;
70253;SDS011;57649;42.968;1.608;2023-07-20T07:40:40;7.40;;;4.50;;
70253;SDS011;57649;42.968;1.608;2023-07-20T07:43:05;8.20;;;5.10;;
70253;SDS011;57649;42.968;1.608;2023-07-20T07:45:34;9.57;;;4.20;;
70253;SDS011;57649;42.968;1.608;2023-07-20T07:48:01;13.07;;;4.50;;
70253;SDS011;57649;42.968;1.608;2023-07-20T07:50:27;8.07;;;4.97;;
70253;SDS011;57649;42.968;1.608;2023-07-20T07:52:53;9.27;;;5.25;;
70253;SDS011;57649;42.968;1.608;2023-07-20T07:55:18;8.77;;;4.55;;
70253;SDS011;57649;42.968;1.608;2023-07-20T07:57:43;11.13;;;4.35;;
70253;SDS011;57649;42.968;1.608;2023-07-20T08:00:09;6.93;;;4.00;;
70253;SDS011;57649;42.968;1.608;2023-07-20T08:02:39;7.50;;;4.22;;
70253;SDS011;57649;42.968;1.608;2023-07-20T08:05:08;9.83;;;4.83;;
70253;SDS011;57649;42.968;1.608;2023-07-20T08:07:33;7.30;;;5.07;;
70253;SDS011;57649;42.968;1.608;2023-07-20T08:09:58;11.10;;;6.00;;
70253;SDS011;57649;42.968;1.608;2023-07-20T08:12:25;6.88;;;4.47;;
70253;SDS011;57649;42.968;1.608;2023-07-20T08:14:51;9.40;;;4.50;;
70253;SDS011;57649;42.968;1.608;2023-07-20T08:17:16;10.15;;;4.50;;
70253;SDS011;57649;42.968;1.608;2023-07-20T08:19:42;9.07;;;5.45;;
70253;SDS011;57649;42.968;1.608;2023-07-20T08:22:09;9.40;;;4.68;;
70253;SDS011;57649;42.968;1.608;2023-07-20T08:24:38;7.30;;;3.97;;
70253;SDS011;57649;42.968;1.608;2023-07-20T08:27:05;10.07;;;4.60;;
70253;SDS011;57649;42.968;1.608;2023-07-20T08:29:30;7.60;;;4.85;;
70253;SDS011;57649;42.968;1.608;2023-07-20T08:31:55;6.45;;;4.38;;
70253;SDS011;57649;42.968;1.608;2023-07-20T08:34:21;5.95;;;3.67;;
70253;SDS011;57649;42.968;1.608;2023-07-20T08:36:46;7.70;;;4.35;;
70253;SDS011;57649;42.968;1.608;2023-07-20T08:39:12;5.85;;;3.65;;
70253;SDS011;57649;42.968;1.608;2023-07-20T08:41:37;6.82;;;4.03;;
70253;SDS011;57649;42.968;1.608;2023-07-20T08:44:04;5.38;;;3.95;;
70253;SDS011;57649;42.968;1.608;2023-07-20T08:46:30;4.80;;;3.83;;
70253;SDS011;57649;42.968;1.608;2023-07-20T08:48:56;7.20;;;3.95;;
70253;SDS011;57649;42.968;1.608;2023-07-20T08:51:22;6.97;;;4.63;;
70253;SDS011;57649;42.968;1.608;2023-07-20T08:53:49;7.60;;;3.90;;
70253;SDS011;57649;42.968;1.608;2023-07-20T08:56:16;5.65;;;3.20;;
70253;SDS011;57649;42.968;1.608;2023-07-20T08:58:43;6.57;;;3.75;;
70253;SDS011;57649;42.968;1.608;2023-07-20T09:01:10;4.95;;;3.60;;
70253;SDS011;57649;42.968;1.608;2023-07-20T09:03:36;6.90;;;3.88;;
70253;SDS011;57649;42.968;1.608;2023-07-20T09:06:04;7.88;;;3.85;;
70253;SDS011;57649;42.968;1.608;2023-07-20T09:08:31;5.93;;;2.95;;
70253;SDS011;57649;42.968;1.608;2023-07-20T09:10:57;6.82;;;3.10;;
70253;SDS011;57649;42.968;1.608;2023-07-20T09:13:24;5.78;;;3.13;;
70253;SDS011;57649;42.968;1.608;2023-07-20T09:15:53;6.38;;;3.95;;
70253;SDS011;57649;42.968;1.608;2023-07-20T09:18:28;6.45;;;3.40;;
70253;SDS011;57649;42.968;1.608;2023-07-20T09:21:01;6.78;;;3.38;;
70253;SDS011;57649;42.968;1.608;2023-07-20T09:23:34;5.20;;;3.33;;
70253;SDS011;57649;42.968;1.608;2023-07-20T09:26:11;5.47;;;3.45;;
70253;SDS011;57649;42.968;1.608;2023-07-20T09:28:58;6.30;;;2.90;;
70253;SDS011;57649;42.968;1.608;2023-07-20T09:31:24;4.60;;;3.08;;
70253;SDS011;57649;42.968;1.608;2023-07-20T09:33:50;4.93;;;3.10;;
70253;SDS011;57649;42.968;1.608;2023-07-20T09:36:18;9.13;;;3.20;;
70253;SDS011;57649;42.968;1.608;2023-07-20T09:38:43;7.13;;;3.10;;
70253;SDS011;57649;42.968;1.608;2023-07-20T09:41:12;5.63;;;3.10;;
70253;SDS011;57649;42.968;1.608;2023-07-20T09:43:39;7.57;;;3.83;;
70253;SDS011;57649;42.968;1.608;2023-07-20T09:46:05;4.78;;;2.72;;
70253;SDS011;57649;42.968;1.608;2023-07-20T09:48:30;7.60;;;3.53;;
70253;SDS011;57649;42.968;1.608;2023-07-20T09:50:56;3.70;;;2.80;;
70253;SDS011;57649;42.968;1.608;2023-07-20T09:53:21;5.43;;;3.78;;
70253;SDS011;57649;42.968;1.608;2023-07-20T09:55:50;5.72;;;3.15;;
70253;SDS011;57649;42.968;1.608;2023-07-20T09:58:17;5.70;;;3.05;;
70253;SDS011;57649;42.968;1.608;2023-07-20T10:00:43;8.50;;;3.30;;
70253;SDS011;57649;42.968;1.608;2023-07-20T10:03:11;7.28;;;3.65;;
70253;SDS011;57649;42.968;1.608;2023-07-20T10:05:43;6.15;;;3.25;;
70253;SDS011;57649;42.968;1.608;2023-07-20T10:08:12;7.95;;;3.78;;
70253;SDS011;57649;42.968;1.608;2023-07-20T10:10:40;4.55;;;3.17;;
70253;SDS011;57649;42.968;1.608;2023-07-20T10:13:10;6.18;;;3.60;;
70253;SDS011;57649;42.968;1.608;2023-07-20T10:15:54;7.65;;;3.60;;
70253;SDS011;57649;42.968;1.608;2023-07-20T10:18:46;7.70;;;3.35;;
70253;SDS011;57649;42.968;1.608;2023-07-20T10:21:19;4.70;;;3.13;;
70253;SDS011;57649;42.968;1.608;2023-07-20T10:23:47;5.97;;;3.60;;
70253;SDS011;57649;42.968;1.608;2023-07-20T10:26:13;7.30;;;3.40;;
70253;SDS011;57649;42.968;1.608;2023-07-20T10:28:39;5.78;;;3.47;;
70253;SDS011;57649;42.968;1.608;2023-07-20T10:31:06;6.68;;;3.88;;
70253;SDS011;57649;42.968;1.608;2023-07-20T10:33:37;9.15;;;3.58;;
70253;SDS011;57649;42.968;1.608;2023-07-20T10:36:03;6.93;;;3.92;;
70253;SDS011;57649;42.968;1.608;2023-07-20T10:44:01;6.25;;;3.33;;
70253;SDS011;57649;42.968;1.608;2023-07-20T10:49:08;4.78;;;3.33;;
70253;SDS011;57649;42.968;1.608;2023-07-20T10:51:39;7.25;;;3.25;;
70253;SDS011;57649;42.968;1.608;2023-07-20T10:54:12;6.32;;;3.25;;
70253;SDS011;57649;42.968;1.608;2023-07-20T10:56:51;6.43;;;3.20;;
70253;SDS011;57649;42.968;1.608;2023-07-20T10:59:17;6.95;;;3.35;;
70253;SDS011;57649;42.968;1.608;2023-07-20T11:01:48;5.72;;;3.15;;
70253;SDS011;57649;42.968;1.608;2023-07-20T11:04:14;6.32;;;3.10;;
70253;SDS011;57649;42.968;1.608;2023-07-20T11:06:45;7.65;;;3.60;;
70253;SDS011;57649;42.968;1.608;2023-07-20T11:09:13;5.80;;;2.95;;
70253;SDS011;57649;42.968;1.608;2023-07-20T11:11:47;6.55;;;3.30;;
70253;SDS011;57649;42.968;1.608;2023-07-20T11:14:25;4.53;;;3.25;;
70253;SDS011;57649;42.968;1.608;2023-07-20T11:16:52;5.50;;;3.07;;
70253;SDS011;57649;42.968;1.608;2023-07-20T11:19:19;6.22;;;3.25;;
70253;SDS011;57649;42.968;1.608;2023-07-20T11:21:52;5.70;;;3.33;;
70253;SDS011;57649;42.968;1.608;2023-07-20T11:24:19;6.03;;;3.20;;
70253;SDS011;57649;42.968;1.608;2023-07-20T11:26:45;9.27;;;3.67;;
70253;SDS011;57649;42.968;1.608;2023-07-20T11:29:21;8.27;;;3.72;;
70253;SDS011;57649;42.968;1.608;2023-07-20T11:31:49;6.95;;;3.40;;
70253;SDS011;57649;42.968;1.608;2023-07-20T11:34:16;5.28;;;3.20;;
70253;SDS011;57649;42.968;1.608;2023-07-20T11:36:44;4.75;;;3.10;;
70253;SDS011;57649;42.968;1.608;2023-07-20T11:39:11;7.90;;;3.60;;
70253;SDS011;57649;42.968;1.608;2023-07-20T11:41:38;5.43;;;3.00;;
70253;SDS011;57649;42.968;1.608;2023-07-20T11:44:09;9.27;;;3.38;;
70253;SDS011;57649;42.968;1.608;2023-07-20T11:46:38;6.30;;;3.50;;
70253;SDS011;57649;42.968;1.608;2023-07-20T11:49:04;6.53;;;3.95;;
70253;SDS011;57649;42.968;1.608;2023-07-20T11:51:30;4.07;;;3.00;;
70253;SDS011;57649;42.968;1.608;2023-07-20T11:53:56;6.10;;;3.45;;
70253;SDS011;57649;42.968;1.608;2023-07-20T11:56:23;8.45;;;3.17;;
70253;SDS011;57649;42.968;1.608;2023-07-20T11:58:49;6.97;;;3.40;;
70253;SDS011;57649;42.968;1.608;2023-07-20T12:01:15;8.60;;;3.28;;
70253;SDS011;57649;42.968;1.608;2023-07-20T12:03:42;7.75;;;3.60;;
70253;SDS011;57649;42.968;1.608;2023-07-20T12:06:12;4.28;;;2.95;;
70253;SDS011;57649;42.968;1.608;2023-07-20T12:08:41;5.60;;;3.17;;
70253;SDS011;57649;42.968;1.608;2023-07-20T12:11:07;7.03;;;3.47;;
70253;SDS011;57649;42.968;1.608;2023-07-20T12:16:14;5.47;;;3.42;;
70253;SDS011;57649;42.968;1.608;2023-07-20T12:18:41;7.10;;;3.50;;
70253;SDS011;57649;42.968;1.608;2023-07-20T12:21:07;6.93;;;3.35;;
70253;SDS011;57649;42.968;1.608;2023-07-20T12:23:37;5.57;;;3.67;;
70253;SDS011;57649;42.968;1.608;2023-07-20T12:26:06;5.43;;;3.22;;
70253;SDS011;57649;42.968;1.608;2023-07-20T12:28:32;5.07;;;3.35;;
70253;SDS011;57649;42.968;1.608;2023-07-20T12:30:58;5.70;;;3.20;;
70253;SDS011;57649;42.968;1.608;2023-07-20T12:33:23;5.90;;;3.50;;
70253;SDS011;57649;42.968;1.608;2023-07-20T12:35:49;6.18;;;3.30;;
70253;SDS011;57649;42.968;1.608;2023-07-20T12:38:16;6.45;;;3.10;;
70253;SDS011;57649;42.968;1.608;2023-07-20T12:40:41;5.97;;;3.53;;
70253;SDS011;57649;42.968;1.608;2023-07-20T12:43:07;5.43;;;3.47;;
70253;SDS011;57649;42.968;1.608;2023-07-20T12:45:33;3.80;;;2.97;;
70253;SDS011;57649;42.968;1.608;2023-07-20T12:47:59;4.00;;;3.03;;
70253;SDS011;57649;42.968;1.608;2023-07-20T12:50:24;4.78;;;3.08;;
70253;SDS011;57649;42.968;1.608;2023-07-20T12:52:50;6.10;;;3.17;;
70253;SDS011;57649;42.968;1.608;2023-07-20T12:55:15;7.10;;;3.35;;
70253;SDS011;57649;42.968;1.608;2023-07-20T12:57:41;4.40;;;3.00;;
70253;SDS011;57649;42.968;1.608;2023-07-20T13:00:08;8.00;;;3.33;;
70253;SDS011;57649;42.968;1.608;2023-07-20T13:02:35;6.65;;;3.30;;
70253;SDS011;57649;42.968;1.608;2023-07-20T13:05:01;6.45;;;3.10;;
70253;SDS011;57649;42.968;1.608;2023-07-20T13:07:45;4.20;;;2.92;;
70253;SDS011;57649;42.968;1.608;2023-07-20T13:10:11;5.82;;;3.03;;
70253;SDS011;57649;42.968;1.608;2023-07-20T13:12:37;5.57;;;2.95;;
70253;SDS011;57649;42.968;1.608;2023-07-20T13:15:04;4.13;;;3.08;;
70253;SDS011;57649;42.968;1.608;2023-07-20T13:17:31;7.72;;;3.28;;
70253;SDS011;57649;42.968;1.608;2023-07-20T13:19:58;5.25;;;3.10;;
70253;SDS011;57649;42.968;1.608;2023-07-20T13:22:23;5.90;;;3.63;;
70253;SDS011;57649;42.968;1.608;2023-07-20T13:24:49;8.55;;;2.97;;
70253;SDS011;57649;42.968;1.608;2023-07-20T13:27:15;4.18;;;3.20;;
70253;SDS011;57649;42.968;1.608;2023-07-20T13:29:41;3.90;;;3.08;;
70253;SDS011;57649;42.968;1.608;2023-07-20T13:32:07;4.10;;;2.80;;
70253;SDS011;57649;42.968;1.608;2023-07-20T13:34:33;3.83;;;2.90;;
70253;SDS011;57649;42.968;1.608;2023-07-20T13:36:58;4.30;;;3.08;;
70253;SDS011;57649;42.968;1.608;2023-07-20T13:39:24;6.22;;;3.20;;
70253;SDS011;57649;42.968;1.608;2023-07-20T13:41:52;5.22;;;3.17;;
70253;SDS011;57649;42.968;1.608;2023-07-20T13:44:17;5.25;;;3.00;;
70253;SDS011;57649;42.968;1.608;2023-07-20T13:46:42;5.75;;;3.17;;
70253;SDS011;57649;42.968;1.608;2023-07-20T13:49:08;4.75;;;2.95;;
70253;SDS011;57649;42.968;1.608;2023-07-20T13:51:34;4.78;;;3.10;;
70253;SDS011;57649;42.968;1.608;2023-07-20T13:53:59;5.07;;;3.53;;
70253;SDS011;57649;42.968;1.608;2023-07-20T13:56:25;6.28;;;3.40;;
70253;SDS011;57649;42.968;1.608;2023-07-20T13:58:50;6.72;;;3.17;;
70253;SDS011;57649;42.968;1.608;2023-07-20T14:01:16;5.10;;;3.10;;
70253;SDS011;57649;42.968;1.608;2023-07-20T14:03:42;6.55;;;3.40;;
70253;SDS011;57649;42.968;1.608;2023-07-20T14:06:08;5.80;;;3.13;;
70253;SDS011;57649;42.968;1.608;2023-07-20T14:08:34;4.60;;;2.95;;
70253;SDS011;57649;42.968;1.608;2023-07-20T14:11:02;4.70;;;3.33;;
70253;SDS011;57649;42.968;1.608;2023-07-20T14:13:27;8.82;;;4.45;;
70253;SDS011;57649;42.968;1.608;2023-07-20T14:15:53;6.80;;;3.60;;
70253;SDS011;57649;42.968;1.608;2023-07-20T14:18:18;5.78;;;3.30;;
70253;SDS011;57649;42.968;1.608;2023-07-20T14:20:43;6.45;;;3.53;;
70253;SDS011;57649;42.968;1.608;2023-07-20T14:23:09;6.28;;;3.45;;
70253;SDS011;57649;42.968;1.608;2023-07-20T14:25:35;7.63;;;4.00;;
70253;SDS011;57649;42.968;1.608;2023-07-20T14:28:00;4.80;;;3.00;;
70253;SDS011;57649;42.968;1.608;2023-07-20T14:30:26;7.00;;;3.22;;
70253;SDS011;57649;42.968;1.608;2023-07-20T14:32:51;8.02;;;3.80;;
70253;SDS011;57649;42.968;1.608;2023-07-20T14:35:17;4.45;;;3.10;;
70253;SDS011;57649;42.968;1.608;2023-07-20T14:37:42;4.60;;;3.17;;
70253;SDS011;57649;42.968;1.608;2023-07-20T14:40:12;7.07;;;2.80;;
70253;SDS011;57649;42.968;1.608;2023-07-20T14:42:37;5.88;;;3.70;;
70253;SDS011;57649;42.968;1.608;2023-07-20T14:45:03;5.03;;;3.35;;
70253;SDS011;57649;42.968;1.608;2023-07-20T14:47:30;4.82;;;3.38;;
70253;SDS011;57649;42.968;1.608;2023-07-20T14:49:57;4.72;;;3.20;;
70253;SDS011;57649;42.968;1.608;2023-07-20T14:52:23;6.55;;;3.40;;
70253;SDS011;57649;42.968;1.608;2023-07-20T14:54:48;6.28;;;3.20;;
70253;SDS011;57649;42.968;1.608;2023-07-20T14:57:14;5.15;;;3.40;;
70253;SDS011;57649;42.968;1.608;2023-07-20T14:59:39;4.30;;;2.97;;
70253;SDS011;57649;42.968;1.608;2023-07-20T15:02:06;5.78;;;3.38;;